Canyonlands, Utah
Current Conditions -  °F | °C
As of 10:53 PM on Thursday 27 Nov 2014 (Local Time) from KCNY Reporting Station
Clear Clear  
Wind Chill: 30°   Ceiling: Unl
Heat Index: 30°   Visibility: 10mi
Dew Point: 19°   Wind: 3mph
Humidity: 64%   Direction: 240°WSW
Pressure: 30.27"   Gusts: NA
Location:  38.6903°N, 109.256°W
Report Text: KCNY 280553Z AUTO 24003KT 10SM CLR M01/M07 A3027 RMK AO2 SLP257 T10111072 10089 21011 58004
Loading
Personal Weather Stations






























Interactive Weather Map New forecast layout! Learn more

10-Day Weather Forecast

Advertisements
Track Severe Weather on mobile